sensor_id;sensor_type;location;lat;lon;timestamp;P1;P2;P0
55549;PMS7003;41397;49.972;18.944;2023-04-15T00:01:16;0;0;0
55549;PMS7003;41397;49.972;18.944;2023-04-15T00:04:19;1;1;0
55549;PMS7003;41397;49.972;18.944;2023-04-15T00:07:21;3;3;2
55549;PMS7003;41397;49.972;18.944;2023-04-15T00:10:22;0;0;0
55549;PMS7003;41397;49.972;18.944;2023-04-15T00:13:23;1;1;1
55549;PMS7003;41397;49.972;18.944;2023-04-15T00:16:25;5;5;3
55549;PMS7003;41397;49.972;18.944;2023-04-15T00:19:28;11;10;6
55549;PMS7003;41397;49.972;18.944;2023-04-15T00:22:30;6;6;5
55549;PMS7003;41397;49.972;18.944;2023-04-15T00:25:32;7;7;5
55549;PMS7003;41397;49.972;18.944;2023-04-15T00:28:33;1;1;1
55549;PMS7003;41397;49.972;18.944;2023-04-15T00:31:35;3;3;3
55549;PMS7003;41397;49.972;18.944;2023-04-15T00:34:36;4;4;2
55549;PMS7003;41397;49.972;18.944;2023-04-15T00:37:38;4;4;3
55549;PMS7003;41397;49.972;18.944;2023-04-15T00:40:40;6;6;5
55549;PMS7003;41397;49.972;18.944;2023-04-15T00:43:42;5;5;3
55549;PMS7003;41397;49.972;18.944;2023-04-15T00:46:43;4;4;3
55549;PMS7003;41397;49.972;18.944;2023-04-15T00:49:46;6;6;5
55549;PMS7003;41397;49.972;18.944;2023-04-15T00:52:50;5;5;4
55549;PMS7003;41397;49.972;18.944;2023-04-15T00:56:11;10;10;6
55549;PMS7003;41397;49.972;18.944;2023-04-15T00:59:35;11;11;9
55549;PMS7003;41397;49.972;18.944;2023-04-15T01:02:38;12;12;11
55549;PMS7003;41397;49.972;18.944;2023-04-15T01:05:39;11;11;7
55549;PMS7003;41397;49.972;18.944;2023-04-15T01:08:42;9;9;6
55549;PMS7003;41397;49.972;18.944;2023-04-15T01:11:43;11;11;7
55549;PMS7003;41397;49.972;18.944;2023-04-15T01:14:46;14;14;10
55549;PMS7003;41397;49.972;18.944;2023-04-15T01:17:47;12;12;10
55549;PMS7003;41397;49.972;18.944;2023-04-15T01:20:49;17;15;12
55549;PMS7003;41397;49.972;18.944;2023-04-15T01:23:51;11;11;7
55549;PMS7003;41397;49.972;18.944;2023-04-15T01:26:57;11;11;8
55549;PMS7003;41397;49.972;18.944;2023-04-15T01:29:59;8;8;8
55549;PMS7003;41397;49.972;18.944;2023-04-15T01:33:00;11;11;10
55549;PMS7003;41397;49.972;18.944;2023-04-15T01:36:03;8;8;4
55549;PMS7003;41397;49.972;18.944;2023-04-15T01:39:06;10;10;9
55549;PMS7003;41397;49.972;18.944;2023-04-15T01:42:08;13;13;12
55549;PMS7003;41397;49.972;18.944;2023-04-15T01:45:09;17;17;13
55549;PMS7003;41397;49.972;18.944;2023-04-15T01:48:13;20;20;16
55549;PMS7003;41397;49.972;18.944;2023-04-15T01:51:14;16;16;10
55549;PMS7003;41397;49.972;18.944;2023-04-15T01:54:16;23;23;13
55549;PMS7003;41397;49.972;18.944;2023-04-15T01:57:18;21;21;14
55549;PMS7003;41397;49.972;18.944;2023-04-15T02:00:19;24;24;18
55549;PMS7003;41397;49.972;18.944;2023-04-15T02:03:23;35;31;20
55549;PMS7003;41397;49.972;18.944;2023-04-15T02:06:25;31;27;19
55549;PMS7003;41397;49.972;18.944;2023-04-15T02:09:27;29;27;19
55549;PMS7003;41397;49.972;18.944;2023-04-15T02:12:29;28;27;18
55549;PMS7003;41397;49.972;18.944;2023-04-15T02:15:31;31;28;16
55549;PMS7003;41397;49.972;18.944;2023-04-15T02:18:33;19;19;11
55549;PMS7003;41397;49.972;18.944;2023-04-15T02:21:34;26;24;14
55549;PMS7003;41397;49.972;18.944;2023-04-15T02:24:35;36;29;19
55549;PMS7003;41397;49.972;18.944;2023-04-15T02:27:37;23;23;17
55549;PMS7003;41397;49.972;18.944;2023-04-15T02:30:38;20;20;13
55549;PMS7003;41397;49.972;18.944;2023-04-15T02:33:40;18;18;11
55549;PMS7003;41397;49.972;18.944;2023-04-15T02:36:41;13;13;12
55549;PMS7003;41397;49.972;18.944;2023-04-15T02:39:43;16;16;14
55549;PMS7003;41397;49.972;18.944;2023-04-15T02:42:44;18;18;12
55549;PMS7003;41397;49.972;18.944;2023-04-15T02:45:46;25;25;15
55549;PMS7003;41397;49.972;18.944;2023-04-15T02:48:48;13;13;9
55549;PMS7003;41397;49.972;18.944;2023-04-15T02:51:50;18;18;12
55549;PMS7003;41397;49.972;18.944;2023-04-15T02:54:52;16;15;9
55549;PMS7003;41397;49.972;18.944;2023-04-15T02:58:00;26;25;18
55549;PMS7003;41397;49.972;18.944;2023-04-15T03:01:01;20;20;15
55549;PMS7003;41397;49.972;18.944;2023-04-15T03:04:02;13;13;10
55549;PMS7003;41397;49.972;18.944;2023-04-15T03:07:04;9;9;7
55549;PMS7003;41397;49.972;18.944;2023-04-15T03:10:06;10;10;9
55549;PMS7003;41397;49.972;18.944;2023-04-15T03:13:09;12;12;9
55549;PMS7003;41397;49.972;18.944;2023-04-15T03:16:10;11;11;7
55549;PMS7003;41397;49.972;18.944;2023-04-15T03:19:12;5;5;4
55549;PMS7003;41397;49.972;18.944;2023-04-15T03:22:13;7;7;5
55549;PMS7003;41397;49.972;18.944;2023-04-15T03:25:15;8;8;7
55549;PMS7003;41397;49.972;18.944;2023-04-15T03:28:16;40;32;22
55549;PMS7003;41397;49.972;18.944;2023-04-15T03:31:18;54;40;24
55549;PMS7003;41397;49.972;18.944;2023-04-15T03:34:19;30;27;15
55549;PMS7003;41397;49.972;18.944;2023-04-15T03:37:21;23;23;15
55549;PMS7003;41397;49.972;18.944;2023-04-15T03:40:22;17;17;12
55549;PMS7003;41397;49.972;18.944;2023-04-15T03:43:23;17;17;12
55549;PMS7003;41397;49.972;18.944;2023-04-15T03:46:25;6;6;5
55549;PMS7003;41397;49.972;18.944;2023-04-15T03:49:27;5;5;5
55549;PMS7003;41397;49.972;18.944;2023-04-15T03:52:30;6;6;3
55549;PMS7003;41397;49.972;18.944;2023-04-15T03:55:31;10;10;7
55549;PMS7003;41397;49.972;18.944;2023-04-15T03:58:33;12;12;11
55549;PMS7003;41397;49.972;18.944;2023-04-15T04:01:34;16;16;12
55549;PMS7003;41397;49.972;18.944;2023-04-15T04:04:38;8;8;6
55549;PMS7003;41397;49.972;18.944;2023-04-15T04:07:40;12;12;10
55549;PMS7003;41397;49.972;18.944;2023-04-15T04:10:41;11;11;9
55549;PMS7003;41397;49.972;18.944;2023-04-15T04:13:42;8;8;7
55549;PMS7003;41397;49.972;18.944;2023-04-15T04:16:46;9;9;6
55549;PMS7003;41397;49.972;18.944;2023-04-15T04:19:47;11;10;6
55549;PMS7003;41397;49.972;18.944;2023-04-15T04:22:49;12;12;10
55549;PMS7003;41397;49.972;18.944;2023-04-15T04:25:50;13;13;9
55549;PMS7003;41397;49.972;18.944;2023-04-15T04:28:54;18;17;13
55549;PMS7003;41397;49.972;18.944;2023-04-15T04:31:55;16;16;11
55549;PMS7003;41397;49.972;18.944;2023-04-15T04:34:57;36;28;20
55549;PMS7003;41397;49.972;18.944;2023-04-15T04:37:58;22;22;14
55549;PMS7003;41397;49.972;18.944;2023-04-15T04:41:02;20;20;12
55549;PMS7003;41397;49.972;18.944;2023-04-15T04:44:03;23;23;16
55549;PMS7003;41397;49.972;18.944;2023-04-15T04:47:05;45;38;26
55549;PMS7003;41397;49.972;18.944;2023-04-15T04:50:07;41;35;23
55549;PMS7003;41397;49.972;18.944;2023-04-15T04:53:10;26;25;19
55549;PMS7003;41397;49.972;18.944;2023-04-15T04:56:11;22;22;16
55549;PMS7003;41397;49.972;18.944;2023-04-15T04:59:13;38;32;22
55549;PMS7003;41397;49.972;18.944;2023-04-15T05:02:14;40;30;21
55549;PMS7003;41397;49.972;18.944;2023-04-15T05:05:18;44;38;26
55549;PMS7003;41397;49.972;18.944;2023-04-15T05:08:19;44;37;26
55549;PMS7003;41397;49.972;18.944;2023-04-15T05:11:21;38;33;24
55549;PMS7003;41397;49.972;18.944;2023-04-15T05:14:23;30;28;20
55549;PMS7003;41397;49.972;18.944;2023-04-15T05:17:26;13;13;10
55549;PMS7003;41397;49.972;18.944;2023-04-15T05:20:28;16;16;12
55549;PMS7003;41397;49.972;18.944;2023-04-15T05:23:29;15;15;11
55549;PMS7003;41397;49.972;18.944;2023-04-15T05:26:31;33;22;12
55549;PMS7003;41397;49.972;18.944;2023-04-15T05:29:34;17;17;13
55549;PMS7003;41397;49.972;18.944;2023-04-15T05:32:36;16;16;12
55549;PMS7003;41397;49.972;18.944;2023-04-15T05:35:37;16;16;14
55549;PMS7003;41397;49.972;18.944;2023-04-15T05:38:38;14;11;6
55549;PMS7003;41397;49.972;18.944;2023-04-15T05:41:42;17;17;13
55549;PMS7003;41397;49.972;18.944;2023-04-15T05:44:43;16;16;13
55549;PMS7003;41397;49.972;18.944;2023-04-15T05:47:45;18;18;14
55549;PMS7003;41397;49.972;18.944;2023-04-15T05:50:47;12;12;11
55549;PMS7003;41397;49.972;18.944;2023-04-15T05:53:50;15;15;10
55549;PMS7003;41397;49.972;18.944;2023-04-15T05:56:51;25;22;13
55549;PMS7003;41397;49.972;18.944;2023-04-15T05:59:52;11;11;8
55549;PMS7003;41397;49.972;18.944;2023-04-15T06:02:56;12;12;10
55549;PMS7003;41397;49.972;18.944;2023-04-15T06:05:58;19;16;11
55549;PMS7003;41397;49.972;18.944;2023-04-15T06:09:01;13;13;11
55549;PMS7003;41397;49.972;18.944;2023-04-15T06:12:02;11;11;8
55549;PMS7003;41397;49.972;18.944;2023-04-15T06:15:04;29;28;18
55549;PMS7003;41397;49.972;18.944;2023-04-15T06:18:06;12;12;6
55549;PMS7003;41397;49.972;18.944;2023-04-15T06:21:07;5;5;5
55549;PMS7003;41397;49.972;18.944;2023-04-15T06:24:10;9;9;6
55549;PMS7003;41397;49.972;18.944;2023-04-15T06:27:12;14;14;9
55549;PMS7003;41397;49.972;18.944;2023-04-15T06:30:13;9;9;6
55549;PMS7003;41397;49.972;18.944;2023-04-15T06:33:15;11;11;7
55549;PMS7003;41397;49.972;18.944;2023-04-15T06:36:17;8;8;7
55549;PMS7003;41397;49.972;18.944;2023-04-15T06:39:19;5;5;5
55549;PMS7003;41397;49.972;18.944;2023-04-15T06:42:21;9;9;8
55549;PMS7003;41397;49.972;18.944;2023-04-15T06:45:23;5;5;4
55549;PMS7003;41397;49.972;18.944;2023-04-15T06:48:24;4;4;4
55549;PMS7003;41397;49.972;18.944;2023-04-15T06:51:26;9;9;6
55549;PMS7003;41397;49.972;18.944;2023-04-15T06:54:29;5;5;5
55549;PMS7003;41397;49.972;18.944;2023-04-15T06:57:30;10;10;8
55549;PMS7003;41397;49.972;18.944;2023-04-15T07:00:32;11;11;7
55549;PMS7003;41397;49.972;18.944;2023-04-15T07:03:34;7;7;5
55549;PMS7003;41397;49.972;18.944;2023-04-15T07:06:37;8;8;7
55549;PMS7003;41397;49.972;18.944;2023-04-15T07:09:39;9;9;7
55549;PMS7003;41397;49.972;18.944;2023-04-15T07:12:40;5;5;3
55549;PMS7003;41397;49.972;18.944;2023-04-15T07:15:42;6;6;4
55549;PMS7003;41397;49.972;18.944;2023-04-15T07:18:45;7;7;5
55549;PMS7003;41397;49.972;18.944;2023-04-15T07:21:46;6;6;5
55549;PMS7003;41397;49.972;18.944;2023-04-15T07:24:48;5;5;4
55549;PMS7003;41397;49.972;18.944;2023-04-15T07:27:49;4;4;2
55549;PMS7003;41397;49.972;18.944;2023-04-15T07:30:52;1;1;1
55549;PMS7003;41397;49.972;18.944;2023-04-15T07:37:31;2;2;1
55549;PMS7003;41397;49.972;18.944;2023-04-15T07:40:47;0;0;0
55549;PMS7003;41397;49.972;18.944;2023-04-15T07:44:02;2;2;0
55549;PMS7003;41397;49.972;18.944;2023-04-15T07:47:05;0;0;0
55549;PMS7003;41397;49.972;18.944;2023-04-15T07:50:08;1;1;1
55549;PMS7003;41397;49.972;18.944;2023-04-15T07:53:10;1;1;0
55549;PMS7003;41397;49.972;18.944;2023-04-15T07:59:47;0;0;0
55549;PMS7003;41397;49.972;18.944;2023-04-15T08:02:51;19;19;14
55549;PMS7003;41397;49.972;18.944;2023-04-15T08:09:27;0;0;0
55549;PMS7003;41397;49.972;18.944;2023-04-15T08:27:04;0;0;0
55549;PMS7003;41397;49.972;18.944;2023-04-15T08:30:06;0;0;0
55549;PMS7003;41397;49.972;18.944;2023-04-15T08:33:08;0;0;0
55549;PMS7003;41397;49.972;18.944;2023-04-15T08:36:10;0;0;0
55549;PMS7003;41397;49.972;18.944;2023-04-15T08:39:21;0;0;0
55549;PMS7003;41397;49.972;18.944;2023-04-15T08:42:45;0;0;0
55549;PMS7003;41397;49.972;18.944;2023-04-15T08:45:49;0;0;0
55549;PMS7003;41397;49.972;18.944;2023-04-15T08:48:55;0;0;0
55549;PMS7003;41397;49.972;18.944;2023-04-15T08:51:58;0;0;0
55549;PMS7003;41397;49.972;18.944;2023-04-15T08:55:01;0;0;0
55549;PMS7003;41397;49.972;18.944;2023-04-15T08:58:04;0;0;0
55549;PMS7003;41397;49.972;18.944;2023-04-15T09:01:06;2;2;2
55549;PMS7003;41397;49.972;18.944;2023-04-15T09:04:08;1;1;1
55549;PMS7003;41397;49.972;18.944;2023-04-15T09:07:12;0;0;0
55549;PMS7003;41397;49.972;18.944;2023-04-15T09:10:13;3;3;2
55549;PMS7003;41397;49.972;18.944;2023-04-15T09:13:15;0;0;0
55549;PMS7003;41397;49.972;18.944;2023-04-15T09:16:16;1;1;0
55549;PMS7003;41397;49.972;18.944;2023-04-15T09:19:22;2;2;1
55549;PMS7003;41397;49.972;18.944;2023-04-15T09:22:30;1;1;1
55549;PMS7003;41397;49.972;18.944;2023-04-15T09:25:33;1;1;0
55549;PMS7003;41397;49.972;18.944;2023-04-15T09:28:44;3;3;3
55549;PMS7003;41397;49.972;18.944;2023-04-15T09:31:43;2;2;2
55549;PMS7003;41397;49.972;18.944;2023-04-15T09:34:44;1;1;1
55549;PMS7003;41397;49.972;18.944;2023-04-15T09:37:47;0;0;0
55549;PMS7003;41397;49.972;18.944;2023-04-15T09:40:49;3;3;1
55549;PMS7003;41397;49.972;18.944;2023-04-15T09:43:51;2;2;2
55549;PMS7003;41397;49.972;18.944;2023-04-15T09:46:53;3;3;3
55549;PMS7003;41397;49.972;18.944;2023-04-15T09:49:55;3;3;2
55549;PMS7003;41397;49.972;18.944;2023-04-15T09:52:57;2;2;2
55549;PMS7003;41397;49.972;18.944;2023-04-15T09:55:59;0;0;0
55549;PMS7003;41397;49.972;18.944;2023-04-15T09:59:02;2;2;1
55549;PMS7003;41397;49.972;18.944;2023-04-15T10:02:03;2;2;2
55549;PMS7003;41397;49.972;18.944;2023-04-15T10:05:09;6;3;2
55549;PMS7003;41397;49.972;18.944;2023-04-15T10:08:11;1;1;1
55549;PMS7003;41397;49.972;18.944;2023-04-15T10:11:13;2;2;1
55549;PMS7003;41397;49.972;18.944;2023-04-15T10:14:15;1;1;0
55549;PMS7003;41397;49.972;18.944;2023-04-15T10:17:20;1;1;1
55549;PMS7003;41397;49.972;18.944;2023-04-15T10:20:22;3;3;2
55549;PMS7003;41397;49.972;18.944;2023-04-15T10:23:29;2;2;0
55549;PMS7003;41397;49.972;18.944;2023-04-15T10:26:30;2;2;2
55549;PMS7003;41397;49.972;18.944;2023-04-15T10:29:35;0;0;0
55549;PMS7003;41397;49.972;18.944;2023-04-15T10:32:37;3;3;3
55549;PMS7003;41397;49.972;18.944;2023-04-15T10:35:40;3;3;3
55549;PMS7003;41397;49.972;18.944;2023-04-15T10:38:43;3;3;2
55549;PMS7003;41397;49.972;18.944;2023-04-15T10:41:46;3;3;3
55549;PMS7003;41397;49.972;18.944;2023-04-15T10:44:59;2;2;1
55549;PMS7003;41397;49.972;18.944;2023-04-15T10:48:04;1;1;1
55549;PMS7003;41397;49.972;18.944;2023-04-15T10:51:08;1;1;1
55549;PMS7003;41397;49.972;18.944;2023-04-15T10:54:14;2;2;2
55549;PMS7003;41397;49.972;18.944;2023-04-15T10:57:21;3;3;2
55549;PMS7003;41397;49.972;18.944;2023-04-15T11:00:24;5;5;4
55549;PMS7003;41397;49.972;18.944;2023-04-15T11:06:44;2;2;2
55549;PMS7003;41397;49.972;18.944;2023-04-15T11:09:45;3;3;2
55549;PMS7003;41397;49.972;18.944;2023-04-15T11:12:49;4;4;3
55549;PMS7003;41397;49.972;18.944;2023-04-15T11:15:54;7;3;2
55549;PMS7003;41397;49.972;18.944;2023-04-15T11:18:57;1;1;0
55549;PMS7003;41397;49.972;18.944;2023-04-15T11:25:09;1;1;1
55549;PMS7003;41397;49.972;18.944;2023-04-15T11:28:11;2;2;1
55549;PMS7003;41397;49.972;18.944;2023-04-15T11:31:13;1;1;1
55549;PMS7003;41397;49.972;18.944;2023-04-15T11:34:22;2;2;1
55549;PMS7003;41397;49.972;18.944;2023-04-15T11:37:28;1;1;1
55549;PMS7003;41397;49.972;18.944;2023-04-15T11:40:30;3;3;2
55549;PMS7003;41397;49.972;18.944;2023-04-15T11:43:35;2;2;2
55549;PMS7003;41397;49.972;18.944;2023-04-15T11:46:37;1;1;1
55549;PMS7003;41397;49.972;18.944;2023-04-15T11:49:38;1;1;0
55549;PMS7003;41397;49.972;18.944;2023-04-15T11:52:51;6;6;5
55549;PMS7003;41397;49.972;18.944;2023-04-15T11:55:53;4;4;3
55549;PMS7003;41397;49.972;18.944;2023-04-15T11:58:55;2;2;2
55549;PMS7003;41397;49.972;18.944;2023-04-15T12:02:09;4;4;3
55549;PMS7003;41397;49.972;18.944;2023-04-15T12:05:12;3;3;3
55549;PMS7003;41397;49.972;18.944;2023-04-15T12:08:13;6;6;4
55549;PMS7003;41397;49.972;18.944;2023-04-15T12:11:18;4;4;3
55549;PMS7003;41397;49.972;18.944;2023-04-15T12:14:23;1;1;1
55549;PMS7003;41397;49.972;18.944;2023-04-15T12:17:27;4;4;3
55549;PMS7003;41397;49.972;18.944;2023-04-15T12:20:42;4;4;3
55549;PMS7003;41397;49.972;18.944;2023-04-15T12:23:53;4;4;2
55549;PMS7003;41397;49.972;18.944;2023-04-15T12:26:56;3;3;3
55549;PMS7003;41397;49.972;18.944;2023-04-15T12:30:02;3;3;3
55549;PMS7003;41397;49.972;18.944;2023-04-15T12:33:05;2;2;1
55549;PMS7003;41397;49.972;18.944;2023-04-15T12:36:07;2;2;2
55549;PMS7003;41397;49.972;18.944;2023-04-15T12:39:09;1;1;1
55549;PMS7003;41397;49.972;18.944;2023-04-15T12:42:11;1;1;1
55549;PMS7003;41397;49.972;18.944;2023-04-15T12:45:12;2;2;1
55549;PMS7003;41397;49.972;18.944;2023-04-15T12:48:14;2;2;2
55549;PMS7003;41397;49.972;18.944;2023-04-15T12:51:15;2;2;2
55549;PMS7003;41397;49.972;18.944;2023-04-15T12:54:17;2;2;1
55549;PMS7003;41397;49.972;18.944;2023-04-15T12:57:19;1;1;1
55549;PMS7003;41397;49.972;18.944;2023-04-15T13:00:21;1;1;0
55549;PMS7003;41397;49.972;18.944;2023-04-15T13:06:56;2;2;1
55549;PMS7003;41397;49.972;18.944;2023-04-15T13:09:57;2;2;2
55549;PMS7003;41397;49.972;18.944;2023-04-15T13:12:59;0;0;0
55549;PMS7003;41397;49.972;18.944;2023-04-15T13:16:01;4;4;3
55549;PMS7003;41397;49.972;18.944;2023-04-15T13:19:03;1;1;0
55549;PMS7003;41397;49.972;18.944;2023-04-15T13:22:05;1;1;1
55549;PMS7003;41397;49.972;18.944;2023-04-15T13:25:08;3;3;2
55549;PMS7003;41397;49.972;18.944;2023-04-15T13:28:10;3;3;2
55549;PMS7003;41397;49.972;18.944;2023-04-15T13:31:12;3;3;2
55549;PMS7003;41397;49.972;18.944;2023-04-15T13:34:13;2;2;2
55549;PMS7003;41397;49.972;18.944;2023-04-15T13:37:14;3;3;3
55549;PMS7003;41397;49.972;18.944;2023-04-15T13:40:16;0;0;0
55549;PMS7003;41397;49.972;18.944;2023-04-15T13:43:19;3;3;3
55549;PMS7003;41397;49.972;18.944;2023-04-15T13:46:21;4;4;3
55549;PMS7003;41397;49.972;18.944;2023-04-15T13:49:23;3;3;1
55549;PMS7003;41397;49.972;18.944;2023-04-15T13:52:24;3;3;1
55549;PMS7003;41397;49.972;18.944;2023-04-15T13:55:25;6;6;5
55549;PMS7003;41397;49.972;18.944;2023-04-15T13:58:27;4;4;4
55549;PMS7003;41397;49.972;18.944;2023-04-15T14:01:29;7;7;6
55549;PMS7003;41397;49.972;18.944;2023-04-15T14:04:30;5;5;4
55549;PMS7003;41397;49.972;18.944;2023-04-15T14:07:32;10;9;6
55549;PMS7003;41397;49.972;18.944;2023-04-15T14:10:34;9;9;7
55549;PMS7003;41397;49.972;18.944;2023-04-15T14:13:35;4;4;4
55549;PMS7003;41397;49.972;18.944;2023-04-15T14:16:37;8;8;7
55549;PMS7003;41397;49.972;18.944;2023-04-15T14:19:38;2;2;1
55549;PMS7003;41397;49.972;18.944;2023-04-15T14:22:40;5;5;5
55549;PMS7003;41397;49.972;18.944;2023-04-15T14:25:42;9;9;6
55549;PMS7003;41397;49.972;18.944;2023-04-15T14:28:44;8;8;6
55549;PMS7003;41397;49.972;18.944;2023-04-15T14:31:47;8;8;7
55549;PMS7003;41397;49.972;18.944;2023-04-15T14:34:49;3;3;2
55549;PMS7003;41397;49.972;18.944;2023-04-15T14:37:53;5;5;5
55549;PMS7003;41397;49.972;18.944;2023-04-15T14:40:55;4;4;4
55549;PMS7003;41397;49.972;18.944;2023-04-15T14:43:57;5;5;5
55549;PMS7003;41397;49.972;18.944;2023-04-15T14:47:00;7;7;5
55549;PMS7003;41397;49.972;18.944;2023-04-15T14:50:04;7;7;6
55549;PMS7003;41397;49.972;18.944;2023-04-15T14:53:06;8;8;7
55549;PMS7003;41397;49.972;18.944;2023-04-15T14:56:07;3;3;3
55549;PMS7003;41397;49.972;18.944;2023-04-15T14:59:09;11;11;8
55549;PMS7003;41397;49.972;18.944;2023-04-15T15:02:10;12;12;9
55549;PMS7003;41397;49.972;18.944;2023-04-15T15:05:13;9;9;8
55549;PMS7003;41397;49.972;18.944;2023-04-15T15:08:15;6;6;5
55549;PMS7003;41397;49.972;18.944;2023-04-15T15:11:17;11;11;9
55549;PMS7003;41397;49.972;18.944;2023-04-15T15:14:18;15;11;8
55549;PMS7003;41397;49.972;18.944;2023-04-15T15:17:20;9;9;6
55549;PMS7003;41397;49.972;18.944;2023-04-15T15:20:22;12;12;10
55549;PMS7003;41397;49.972;18.944;2023-04-15T15:23:24;7;7;6
55549;PMS7003;41397;49.972;18.944;2023-04-15T15:26:25;4;4;3
55549;PMS7003;41397;49.972;18.944;2023-04-15T15:29:28;5;5;5
55549;PMS7003;41397;49.972;18.944;2023-04-15T15:32:30;5;5;4
55549;PMS7003;41397;49.972;18.944;2023-04-15T15:35:31;6;6;3
55549;PMS7003;41397;49.972;18.944;2023-04-15T15:38:33;13;13;8
55549;PMS7003;41397;49.972;18.944;2023-04-15T15:41:34;9;9;8
55549;PMS7003;41397;49.972;18.944;2023-04-15T15:44:36;11;11;8
55549;PMS7003;41397;49.972;18.944;2023-04-15T15:47:38;9;9;7
55549;PMS7003;41397;49.972;18.944;2023-04-15T15:50:41;7;7;6
55549;PMS7003;41397;49.972;18.944;2023-04-15T15:53:57;3;3;2
55549;PMS7003;41397;49.972;18.944;2023-04-15T16:00:33;9;9;8
55549;PMS7003;41397;49.972;18.944;2023-04-15T16:03:39;7;7;5
55549;PMS7003;41397;49.972;18.944;2023-04-15T16:06:40;3;3;2
55549;PMS7003;41397;49.972;18.944;2023-04-15T16:09:47;2;2;2
55549;PMS7003;41397;49.972;18.944;2023-04-15T16:12:49;2;2;2
55549;PMS7003;41397;49.972;18.944;2023-04-15T16:15:51;4;4;3
55549;PMS7003;41397;49.972;18.944;2023-04-15T16:18:52;6;6;5
55549;PMS7003;41397;49.972;18.944;2023-04-15T16:21:56;4;4;4
55549;PMS7003;41397;49.972;18.944;2023-04-15T16:24:57;1;1;1
55549;PMS7003;41397;49.972;18.944;2023-04-15T16:28:00;2;2;1
55549;PMS7003;41397;49.972;18.944;2023-04-15T16:31:01;3;3;3
55549;PMS7003;41397;49.972;18.944;2023-04-15T16:34:02;12;12;8
55549;PMS7003;41397;49.972;18.944;2023-04-15T16:37:04;18;18;10
55549;PMS7003;41397;49.972;18.944;2023-04-15T16:42:44;15;15;10
55549;PMS7003;41397;49.972;18.944;2023-04-15T16:45:46;8;8;6
55549;PMS7003;41397;49.972;18.944;2023-04-15T16:48:50;5;5;4
55549;PMS7003;41397;49.972;18.944;2023-04-15T16:51:52;9;9;7
55549;PMS7003;41397;49.972;18.944;2023-04-15T16:54:54;16;16;8
55549;PMS7003;41397;49.972;18.944;2023-04-15T16:57:59;9;9;7
55549;PMS7003;41397;49.972;18.944;2023-04-15T17:01:10;8;8;6
55549;PMS7003;41397;49.972;18.944;2023-04-15T17:07:54;10;10;9
55549;PMS7003;41397;49.972;18.944;2023-04-15T17:11:16;16;16;13
55549;PMS7003;41397;49.972;18.944;2023-04-15T17:14:18;16;16;14
55549;PMS7003;41397;49.972;18.944;2023-04-15T17:17:20;30;29;21
55549;PMS7003;41397;49.972;18.944;2023-04-15T17:20:21;41;33;22
55549;PMS7003;41397;49.972;18.944;2023-04-15T17:23:23;23;23;14
55549;PMS7003;41397;49.972;18.944;2023-04-15T17:26:26;20;20;14
55549;PMS7003;41397;49.972;18.944;2023-04-15T17:29:28;22;22;15
55549;PMS7003;41397;49.972;18.944;2023-04-15T17:32:29;21;21;13
55549;PMS7003;41397;49.972;18.944;2023-04-15T17:35:34;22;22;15
55549;PMS7003;41397;49.972;18.944;2023-04-15T17:38:36;16;16;10
55549;PMS7003;41397;49.972;18.944;2023-04-15T17:41:38;19;19;13
55549;PMS7003;41397;49.972;18.944;2023-04-15T17:44:39;18;18;12
55549;PMS7003;41397;49.972;18.944;2023-04-15T17:47:41;20;20;14
55549;PMS7003;41397;49.972;18.944;2023-04-15T18:22:15;30;27;19
55549;PMS7003;41397;49.972;18.944;2023-04-15T18:25:40;31;29;19
55549;PMS7003;41397;49.972;18.944;2023-04-15T18:29:02;31;27;21
55549;PMS7003;41397;49.972;18.944;2023-04-15T18:42:39;27;26;18
55549;PMS7003;41397;49.972;18.944;2023-04-15T18:49:46;29;28;20
55549;PMS7003;41397;49.972;18.944;2023-04-15T18:53:03;27;25;17
55549;PMS7003;41397;49.972;18.944;2023-04-15T18:56:30;32;27;20
55549;PMS7003;41397;49.972;18.944;2023-04-15T19:00:01;33;30;21
55549;PMS7003;41397;49.972;18.944;2023-04-15T19:03:24;23;23;18
55549;PMS7003;41397;49.972;18.944;2023-04-15T19:06:35;28;27;19
55549;PMS7003;41397;49.972;18.944;2023-04-15T19:09:37;30;28;16
55549;PMS7003;41397;49.972;18.944;2023-04-15T19:12:58;29;28;17
55549;PMS7003;41397;49.972;18.944;2023-04-15T19:19:31;25;25;19
55549;PMS7003;41397;49.972;18.944;2023-04-15T19:29:40;39;34;19
55549;PMS7003;41397;49.972;18.944;2023-04-15T19:36:13;30;28;18
55549;PMS7003;41397;49.972;18.944;2023-04-15T19:50:00;53;44;28
55549;PMS7003;41397;49.972;18.944;2023-04-15T19:53:32;48;39;18
55549;PMS7003;41397;49.972;18.944;2023-04-15T20:11:20;75;73;46
55549;PMS7003;41397;49.972;18.944;2023-04-15T20:14:47;106;93;52
55549;PMS7003;41397;49.972;18.944;2023-04-15T20:18:31;70;64;26
55549;PMS7003;41397;49.972;18.944;2023-04-15T20:21:52;67;57;34
55549;PMS7003;41397;49.972;18.944;2023-04-15T20:25:00;63;53;33
55549;PMS7003;41397;49.972;18.944;2023-04-15T20:31:49;52;43;29
55549;PMS7003;41397;49.972;18.944;2023-04-15T20:35:25;52;43;29
55549;PMS7003;41397;49.972;18.944;2023-04-15T20:38:48;62;53;31
55549;PMS7003;41397;49.972;18.944;2023-04-15T20:42:03;59;51;34
55549;PMS7003;41397;49.972;18.944;2023-04-15T20:45:32;65;57;35
55549;PMS7003;41397;49.972;18.944;2023-04-15T20:48:41;54;45;30
55549;PMS7003;41397;49.972;18.944;2023-04-15T20:51:49;62;53;33
55549;PMS7003;41397;49.972;18.944;2023-04-15T20:54:55;63;54;31
55549;PMS7003;41397;49.972;18.944;2023-04-15T20:58:17;72;60;40
55549;PMS7003;41397;49.972;18.944;2023-04-15T21:01:22;69;64;39
55549;PMS7003;41397;49.972;18.944;2023-04-15T21:08:08;62;54;34
55549;PMS7003;41397;49.972;18.944;2023-04-15T21:11:14;63;56;36
55549;PMS7003;41397;49.972;18.944;2023-04-15T21:14:16;62;53;36
55549;PMS7003;41397;49.972;18.944;2023-04-15T21:17:18;66;56;33
55549;PMS7003;41397;49.972;18.944;2023-04-15T21:20:19;52;42;27
55549;PMS7003;41397;49.972;18.944;2023-04-15T21:23:22;55;44;29
55549;PMS7003;41397;49.972;18.944;2023-04-15T21:26:24;59;50;30
55549;PMS7003;41397;49.972;18.944;2023-04-15T21:29:26;52;43;29
55549;PMS7003;41397;49.972;18.944;2023-04-15T21:32:28;67;59;38
55549;PMS7003;41397;49.972;18.944;2023-04-15T21:35:31;63;48;30
55549;PMS7003;41397;49.972;18.944;2023-04-15T21:38:33;70;58;35
55549;PMS7003;41397;49.972;18.944;2023-04-15T21:41:54;66;54;36
55549;PMS7003;41397;49.972;18.944;2023-04-15T21:45:17;63;55;35
55549;PMS7003;41397;49.972;18.944;2023-04-15T21:48:19;70;62;36
55549;PMS7003;41397;49.972;18.944;2023-04-15T21:51:21;53;44;30
55549;PMS7003;41397;49.972;18.944;2023-04-15T21:54:22;70;56;33
55549;PMS7003;41397;49.972;18.944;2023-04-15T21:57:24;63;53;30
55549;PMS7003;41397;49.972;18.944;2023-04-15T22:00:26;60;48;30
55549;PMS7003;41397;49.972;18.944;2023-04-15T22:03:31;56;46;32
55549;PMS7003;41397;49.972;18.944;2023-04-15T22:06:39;66;61;37
55549;PMS7003;41397;49.972;18.944;2023-04-15T22:09:42;67;60;37
55549;PMS7003;41397;49.972;18.944;2023-04-15T22:12:43;68;60;40